createdAt,value
2019-04-07T00:00:44.019Z,81.72
2019-04-07T00:05:49.509Z,82.62
2019-04-07T00:10:55.072Z,82.84
2019-04-07T00:16:02.492Z,83.03
2019-04-07T00:21:08.622Z,83.48
2019-04-07T00:26:14.367Z,84.00
2019-04-07T00:31:20.465Z,84.06
2019-04-07T00:36:26.645Z,83.41
2019-04-07T00:41:32.131Z,83.42
2019-04-07T00:46:37.665Z,83.68
2019-04-07T00:51:43.944Z,83.68
2019-04-07T00:56:49.248Z,83.76
2019-04-07T01:01:55.274Z,83.18
2019-04-07T01:07:00.868Z,83.40
2019-04-07T01:12:07.217Z,83.23
2019-04-07T01:17:13.836Z,82.82
2019-04-07T01:22:19.755Z,82.54
2019-04-07T01:27:27.023Z,82.78
2019-04-07T01:32:32.377Z,82.60
2019-04-07T01:37:38.054Z,82.57
2019-04-07T01:43:11.715Z,82.88
2019-04-07T01:48:39.659Z,82.83
2019-04-07T01:53:52.193Z,83.34
2019-04-07T01:59:22.096Z,84.28
2019-04-07T02:05:01.724Z,83.05
2019-04-07T02:10:24.014Z,83.76
2019-04-07T02:15:37.285Z,83.49
2019-04-07T02:21:05.394Z,83.97
2019-04-07T02:26:16.612Z,83.96
2019-04-07T02:31:40.971Z,84.59
2019-04-07T02:37:08.171Z,84.67
2019-04-07T02:42:42.810Z,84.49
2019-04-07T02:48:16.501Z,84.00
2019-04-07T02:53:34.888Z,82.95
2019-04-07T02:58:59.388Z,83.11
2019-04-07T03:04:18.930Z,84.27
2019-04-07T03:09:48.221Z,83.88
2019-04-07T03:15:27.708Z,83.41
2019-04-07T03:21:02.418Z,83.10
2019-04-07T03:26:29.685Z,83.19
2019-04-07T03:32:00.507Z,84.31
2019-04-07T03:37:34.441Z,84.94
2019-04-07T03:42:51.160Z,83.84
2019-04-07T03:48:10.461Z,84.43
2019-04-07T03:53:32.364Z,84.13
2019-04-07T03:58:59.937Z,84.94
2019-04-07T04:04:15.786Z,85.12
2019-04-07T04:09:28.418Z,84.76
2019-04-07T04:14:40.345Z,84.13
2019-04-07T04:19:46.759Z,84.65
2019-04-07T04:24:53.431Z,84.47
2019-04-07T04:29:58.815Z,82.84
2019-04-07T04:35:04.589Z,82.73
2019-04-07T04:40:13.839Z,83.21
2019-04-07T04:45:19.711Z,84.12
2019-04-07T04:50:28.317Z,84.60
2019-04-07T04:59:52.717Z,84.91
2019-04-07T05:04:58.119Z,84.67
2019-04-07T05:10:03.360Z,83.64
2019-04-07T05:15:09.644Z,83.42
2019-04-07T05:20:15.230Z,84.99
2019-04-07T05:25:20.690Z,84.37
2019-04-07T05:30:26.213Z,84.12
2019-04-07T05:35:31.533Z,84.46
2019-04-07T05:40:36.875Z,85.35
2019-04-07T05:45:42.182Z,84.76
2019-04-07T05:50:48.723Z,84.41
2019-04-07T05:55:55.383Z,83.92
2019-04-07T06:01:01.840Z,84.16
2019-04-07T06:06:07.040Z,83.46
2019-04-07T06:11:13.598Z,82.59
2019-04-07T06:16:20.950Z,82.29
2019-04-07T06:21:26.218Z,81.51
2019-04-07T06:26:31.462Z,80.83
2019-04-07T06:31:36.822Z,80.10
2019-04-07T06:36:43.123Z,79.53
2019-04-07T06:41:48.904Z,78.63
2019-04-07T06:47:12.785Z,78.09
2019-04-07T06:52:27.098Z,76.83
2019-04-07T06:57:46.600Z,75.18
2019-04-07T07:03:02.340Z,73.87
2019-04-07T07:08:15.044Z,73.32
2019-04-07T07:13:44.701Z,72.86
2019-04-07T07:19:10.681Z,72.54
2019-04-07T07:24:22.491Z,71.09
2019-04-07T07:29:26.532Z,70.33
2019-04-07T07:34:31.644Z,69.16
2019-04-07T07:39:41.840Z,68.49
2019-04-07T07:44:44.742Z,67.78
2019-04-07T07:49:50.832Z,67.13
2019-04-07T07:54:59.782Z,66.04
2019-04-07T08:00:06.112Z,64.55
2019-04-07T08:05:11.433Z,63.32
2019-04-07T08:10:17.158Z,62.90
2019-04-07T08:15:25.474Z,60.29
2019-04-07T08:20:29.692Z,60.66
2019-04-07T08:25:35.744Z,58.66
2019-04-07T08:30:46.497Z,59.71
2019-04-07T08:35:51.211Z,57.97
2019-04-07T08:40:57.604Z,58.38
2019-04-07T08:46:04.779Z,58.03
2019-04-07T08:51:11.272Z,57.82
2019-04-07T08:56:17.824Z,56.65
2019-04-07T09:01:23.820Z,56.71
2019-04-07T09:06:29.616Z,56.98
2019-04-07T09:11:39.046Z,55.78
2019-04-07T09:17:01.441Z,57.11
2019-04-07T09:22:31.592Z,54.31
2019-04-07T09:27:59.183Z,55.88
2019-04-07T09:33:24.230Z,54.73
2019-04-07T09:38:42.166Z,54.32
2019-04-07T09:44:06.545Z,55.22
2019-04-07T09:49:31.003Z,53.70
2019-04-07T09:54:51.818Z,53.62
2019-04-07T10:00:12.716Z,53.00
2019-04-07T10:05:27.146Z,50.67
2019-04-07T10:10:55.978Z,49.53
2019-04-07T10:16:33.869Z,50.81
2019-04-07T10:22:04.366Z,50.92
2019-04-07T10:27:18.921Z,50.18
2019-04-07T10:32:44.868Z,50.29
2019-04-07T10:38:07.550Z,48.74
2019-04-07T10:43:35.004Z,48.09
2019-04-07T10:49:00.237Z,47.19
2019-04-07T10:54:25.083Z,47.46
2019-04-07T10:59:51.248Z,44.97
2019-04-07T11:05:34.480Z,45.54
2019-04-07T11:11:12.282Z,46.05
2019-04-07T11:16:31.789Z,44.60
2019-04-07T11:21:56.645Z,44.07
2019-04-07T11:27:35.358Z,43.17
2019-04-07T11:32:48.125Z,42.00
2019-04-07T11:38:11.576Z,41.41
2019-04-07T11:43:54.829Z,40.82
2019-04-07T11:49:13.553Z,38.54
2019-04-07T11:54:40.480Z,36.89
2019-04-07T12:00:18.338Z,37.33
2019-04-07T12:05:33.629Z,36.80
2019-04-07T12:11:02.288Z,36.57
2019-04-07T12:16:22.055Z,35.64
2019-04-07T12:21:38.098Z,33.93
2019-04-07T12:26:53.804Z,32.94
2019-04-07T12:32:17.135Z,32.37
2019-04-07T12:37:50.616Z,31.21
2019-04-07T12:43:27.255Z,30.81
2019-04-07T12:48:59.888Z,30.14
2019-04-07T12:54:27.749Z,28.87
2019-04-07T12:59:52.770Z,28.87
2019-04-07T13:05:09.055Z,27.92
2019-04-07T13:10:25.437Z,27.63
2019-04-07T13:16:09.141Z,27.60
2019-04-07T13:21:34.297Z,28.00
2019-04-07T13:27:06.220Z,27.21
2019-04-07T13:32:41.544Z,26.20
2019-04-07T13:38:18.618Z,25.52
2019-04-07T13:43:47.348Z,26.26
2019-04-07T13:49:11.818Z,27.40
2019-04-07T13:54:34.981Z,29.62
2019-04-07T14:00:02.350Z,30.91
2019-04-07T14:05:27.385Z,33.50
2019-04-07T14:10:58.303Z,34.87
2019-04-07T14:16:26.916Z,36.01
2019-04-07T14:21:50.461Z,35.53
2019-04-07T14:27:04.383Z,36.72
2019-04-07T14:32:27.481Z,36.39
2019-04-07T14:37:44.792Z,38.02
2019-04-07T14:42:57.193Z,37.48
2019-04-07T14:48:11.594Z,38.08
2019-04-07T14:53:36.604Z,37.72
2019-04-07T14:58:51.105Z,38.20
2019-04-07T15:03:55.699Z,38.99
2019-04-07T15:09:10.194Z,38.54
2019-04-07T15:14:15.648Z,38.53
2019-04-07T15:19:21.170Z,37.61
2019-04-07T15:24:27.095Z,37.62
2019-04-07T15:29:34.305Z,38.84
2019-04-07T15:34:42.492Z,39.29
2019-04-07T15:39:50.590Z,40.66
2019-04-07T15:44:56.094Z,40.31
2019-04-07T15:50:01.510Z,40.31
2019-04-07T15:55:08.368Z,41.33
2019-04-07T16:00:15.355Z,41.66
2019-04-07T16:05:21.509Z,41.62
2019-04-07T16:10:35.999Z,42.26
2019-04-07T16:15:45.326Z,42.94
2019-04-07T16:20:51.781Z,43.20
2019-04-07T16:25:58.355Z,44.19
2019-04-07T16:31:06.519Z,43.85
2019-04-07T16:36:13.204Z,45.16
2019-04-07T16:41:18.573Z,45.43
2019-04-07T16:46:25.019Z,45.41
2019-04-07T16:51:33.637Z,45.22
2019-04-07T16:56:38.016Z,46.16
2019-04-07T17:01:43.572Z,46.51
2019-04-07T17:06:59.529Z,46.24
2019-04-07T17:11:56.750Z,47.85
2019-04-07T17:17:02.001Z,48.32
2019-04-07T17:22:07.370Z,48.50
2019-04-07T17:27:13.365Z,49.15
2019-04-07T17:32:18.858Z,48.61
2019-04-07T17:37:28.178Z,48.66
2019-04-07T17:42:32.286Z,49.14
2019-04-07T17:48:03.716Z,49.84
2019-04-07T17:53:29.758Z,49.67
2019-04-07T17:58:59.940Z,50.21
2019-04-07T18:04:43.910Z,50.29
2019-04-07T18:10:17.581Z,50.40
2019-04-07T18:15:41.757Z,50.62
2019-04-07T18:21:11.726Z,51.50
2019-04-07T18:26:25.151Z,52.91
2019-04-07T18:31:43.615Z,52.57
2019-04-07T18:37:07.173Z,53.70
2019-04-07T18:42:22.978Z,54.18
2019-04-07T18:47:48.315Z,54.69
2019-04-07T18:53:14.701Z,56.87
2019-04-07T18:58:31.258Z,56.84
2019-04-07T19:03:56.050Z,57.43
2019-04-07T19:09:18.900Z,57.66
2019-04-07T19:14:44.563Z,58.15
2019-04-07T19:20:05.318Z,57.97
2019-04-07T19:25:35.532Z,58.55
2019-04-07T19:31:06.647Z,59.03
2019-04-07T19:36:29.369Z,59.06
2019-04-07T19:41:46.913Z,58.37
2019-04-07T19:47:02.132Z,59.41
2019-04-07T19:52:41.556Z,60.20
2019-04-07T19:57:59.996Z,57.21
2019-04-07T20:03:28.389Z,58.12
2019-04-07T20:08:44.215Z,59.07
2019-04-07T20:14:13.694Z,58.02
2019-04-07T20:19:45.600Z,57.61
2019-04-07T20:25:13.278Z,57.31
2019-04-07T20:30:31.791Z,56.77
2019-04-07T20:35:55.549Z,56.14
2019-04-07T20:41:20.248Z,57.13
2019-04-07T20:46:57.040Z,57.18
2019-04-07T20:52:20.079Z,57.55
2019-04-07T20:57:43.267Z,58.22
2019-04-07T21:03:18.158Z,59.07
2019-04-07T21:08:41.647Z,59.78
2019-04-07T21:14:09.325Z,59.98
2019-04-07T21:19:51.926Z,59.76
2019-04-07T21:25:25.093Z,59.84
2019-04-07T21:30:46.804Z,59.70
2019-04-07T21:36:20.574Z,59.33
2019-04-07T21:41:54.896Z,59.88
2019-04-07T21:47:38.546Z,59.16
2019-04-07T21:53:10.149Z,58.86
2019-04-07T21:58:40.486Z,58.71
2019-04-07T22:04:11.523Z,58.55
2019-04-07T22:09:21.291Z,58.96
2019-04-07T22:14:27.058Z,59.05
2019-04-07T22:19:33.957Z,59.04
2019-04-07T22:24:40.648Z,59.57
2019-04-07T22:29:47.105Z,58.91
2019-04-07T22:34:54.690Z,59.06
2019-04-07T22:40:02.131Z,59.36
2019-04-07T22:45:08.198Z,59.23
2019-04-07T22:50:14.988Z,59.69
2019-04-07T22:55:27.033Z,59.96
2019-04-07T23:00:32.553Z,59.83
2019-04-07T23:05:37.879Z,61.58
2019-04-07T23:10:44.279Z,60.95
2019-04-07T23:15:50.776Z,61.23
2019-04-07T23:20:56.083Z,61.33
2019-04-07T23:26:02.055Z,61.98
2019-04-07T23:31:07.881Z,62.44
2019-04-07T23:36:13.727Z,63.03
2019-04-07T23:41:18.976Z,64.08
2019-04-07T23:46:27.151Z,64.95
2019-04-07T23:51:32.253Z,65.08
2019-04-07T23:56:38.044Z,65.16
